createdAt,value
2022-10-05T00:01:47.716Z,18.88
2022-10-05T00:04:18.593Z,18.45
2022-10-05T00:06:48.605Z,15.88
2022-10-05T00:09:18.987Z,18.65
2022-10-05T00:11:46.862Z,19.27
2022-10-05T00:14:17.583Z,17.08
2022-10-05T00:16:46.176Z,15.32
2022-10-05T00:19:21.954Z,18.00
2022-10-05T00:21:49.607Z,14.95
2022-10-05T00:24:20.558Z,17.92
2022-10-05T00:26:52.812Z,18.27
2022-10-05T00:29:25.081Z,16.88
2022-10-05T00:31:52.668Z,16.80
2022-10-05T00:34:21.853Z,18.48
2022-10-05T00:36:49.765Z,18.20
2022-10-05T00:39:19.272Z,17.80
2022-10-05T00:42:00.881Z,16.67
2022-10-05T00:44:37.707Z,17.60
2022-10-05T00:47:17.776Z,20.80
2022-10-05T00:50:02.027Z,19.10
2022-10-05T00:52:38.261Z,17.13
2022-10-05T00:55:14.609Z,20.05
2022-10-05T00:57:51.761Z,17.67
2022-10-05T01:00:24.397Z,19.73
2022-10-05T01:03:00.264Z,18.30
2022-10-05T01:05:52.021Z,16.80
2022-10-05T01:08:31.246Z,20.40
2022-10-05T01:11:04.872Z,18.65
2022-10-05T01:13:39.945Z,17.88
2022-10-05T01:16:16.238Z,21.25
2022-10-05T01:18:52.576Z,22.33
2022-10-05T01:21:24.066Z,18.30
2022-10-05T01:24:22.646Z,23.80
2022-10-05T01:27:10.498Z,19.90
2022-10-05T01:29:44.624Z,22.88
2022-10-05T01:32:23.863Z,25.57
2022-10-05T01:34:58.178Z,22.00
2022-10-05T01:37:29.646Z,20.80
2022-10-05T01:40:04.554Z,19.33
2022-10-05T01:42:43.880Z,23.23
2022-10-05T01:45:22.877Z,21.38
2022-10-05T01:47:56.490Z,24.13
2022-10-05T01:50:34.108Z,20.90
2022-10-05T01:53:09.318Z,18.20
2022-10-05T01:55:43.742Z,18.93
2022-10-05T01:58:20.255Z,14.07
2022-10-05T02:01:00.199Z,20.20
2022-10-05T02:03:32.803Z,17.60
2022-10-05T02:06:08.129Z,18.97
2022-10-05T02:08:42.336Z,17.27
2022-10-05T02:11:13.039Z,17.17
2022-10-05T02:13:44.541Z,17.03
2022-10-05T02:16:17.807Z,18.60
2022-10-05T02:18:51.525Z,21.67
2022-10-05T02:21:20.768Z,18.30
2022-10-05T02:23:53.244Z,20.40
2022-10-05T02:26:22.205Z,28.40
2022-10-05T02:28:54.490Z,29.37
2022-10-05T02:31:28.573Z,21.63
2022-10-05T02:34:28.087Z,18.47
2022-10-05T02:37:15.514Z,16.70
2022-10-05T02:39:57.126Z,20.53
2022-10-05T02:42:31.437Z,19.07
2022-10-05T02:45:11.018Z,20.63
2022-10-05T02:47:48.041Z,20.23
2022-10-05T02:50:24.409Z,21.40
2022-10-05T02:52:57.962Z,19.80
2022-10-05T02:55:34.962Z,22.97
2022-10-05T02:58:09.647Z,25.50
2022-10-05T03:00:46.599Z,22.10
2022-10-05T03:03:26.209Z,21.20
2022-10-05T03:05:59.647Z,20.43
2022-10-05T03:08:34.980Z,19.80
2022-10-05T03:11:09.388Z,20.17
2022-10-05T03:13:47.682Z,21.23
2022-10-05T03:16:34.886Z,19.97
2022-10-05T03:19:19.047Z,18.23
2022-10-05T03:21:55.620Z,22.57
2022-10-05T03:24:40.174Z,24.57
2022-10-05T03:27:18.692Z,24.77
2022-10-05T03:29:55.263Z,26.90
2022-10-05T03:32:32.409Z,28.80
2022-10-05T03:35:08.714Z,26.83
2022-10-05T03:37:46.368Z,25.30
2022-10-05T03:40:25.092Z,26.10
2022-10-05T03:43:07.189Z,22.20
2022-10-05T03:45:43.325Z,22.40
2022-10-05T03:48:15.245Z,23.63
2022-10-05T03:50:50.911Z,21.40
2022-10-05T03:53:21.731Z,21.80
2022-10-05T03:55:53.083Z,25.93
2022-10-05T03:58:25.562Z,26.97
2022-10-05T04:00:59.134Z,25.03
2022-10-05T04:03:34.418Z,24.07
2022-10-05T04:06:09.232Z,26.53
2022-10-05T04:08:47.770Z,20.70
2022-10-05T04:11:22.403Z,24.73
2022-10-05T04:13:55.573Z,24.40
2022-10-05T04:16:28.833Z,24.77
2022-10-05T04:19:02.329Z,24.07
2022-10-05T04:21:35.758Z,28.93
2022-10-05T04:24:10.172Z,28.53
2022-10-05T04:26:43.048Z,26.17
2022-10-05T04:29:19.041Z,24.77
2022-10-05T04:32:02.982Z,27.97
2022-10-05T04:34:59.086Z,28.00
2022-10-05T04:37:36.809Z,28.33
2022-10-05T04:40:18.778Z,26.23
2022-10-05T04:42:56.782Z,27.47
2022-10-05T04:45:41.687Z,30.33
2022-10-05T04:48:44.703Z,33.43
2022-10-05T04:51:26.172Z,32.30
2022-10-05T04:53:59.987Z,30.70
2022-10-05T04:56:35.330Z,34.27
2022-10-05T04:59:27.426Z,38.53
2022-10-05T05:02:06.665Z,34.20
2022-10-05T05:04:56.493Z,38.60
2022-10-05T05:07:36.052Z,35.63
2022-10-05T05:10:41.123Z,36.00
2022-10-05T05:13:24.955Z,32.87
2022-10-05T05:15:57.910Z,28.87
2022-10-05T05:18:49.827Z,30.33
2022-10-05T05:21:31.108Z,30.83
2022-10-05T05:24:06.511Z,33.17
2022-10-05T05:26:49.052Z,38.00
2022-10-05T05:29:32.038Z,36.03
2022-10-05T05:32:08.202Z,30.33
2022-10-05T05:34:49.065Z,25.03
2022-10-05T05:37:25.902Z,22.67
2022-10-05T05:40:04.685Z,27.63
2022-10-05T05:42:40.585Z,22.90
2022-10-05T05:45:17.889Z,22.87
2022-10-05T05:47:52.025Z,20.43
2022-10-05T05:50:34.612Z,21.83
2022-10-05T05:53:11.775Z,20.87
2022-10-05T05:55:42.721Z,19.23
2022-10-05T05:58:16.003Z,18.37
2022-10-05T06:00:51.129Z,19.83
2022-10-05T06:03:25.530Z,20.93
2022-10-05T06:05:57.497Z,19.00
2022-10-05T06:08:31.824Z,22.07
2022-10-05T06:11:02.671Z,20.33
2022-10-05T06:13:34.811Z,18.73
2022-10-05T06:16:11.469Z,19.70
2022-10-05T06:18:44.945Z,20.77
2022-10-05T06:21:19.536Z,20.50
2022-10-05T06:23:53.783Z,16.93
2022-10-05T06:26:41.013Z,20.60
2022-10-05T06:29:13.888Z,14.23
2022-10-05T06:31:59.143Z,14.37
2022-10-05T06:34:44.205Z,16.63
2022-10-05T06:37:19.585Z,17.00
2022-10-05T06:40:16.827Z,17.30
2022-10-05T06:43:11.272Z,14.73
2022-10-05T06:45:53.942Z,19.30
2022-10-05T06:48:33.227Z,13.23
2022-10-05T06:51:10.929Z,15.73
2022-10-05T06:53:46.450Z,14.97
2022-10-05T06:56:18.497Z,13.70
2022-10-05T06:58:55.914Z,13.73
2022-10-05T07:01:36.089Z,16.23
2022-10-05T07:04:36.818Z,13.50
2022-10-05T07:07:14.687Z,15.03
2022-10-05T07:09:53.693Z,11.83
2022-10-05T07:12:41.318Z,23.33
2022-10-05T07:15:23.448Z,24.00
2022-10-05T07:18:05.152Z,14.83
2022-10-05T07:20:49.066Z,13.03
2022-10-05T07:23:31.845Z,16.53
2022-10-05T07:26:06.617Z,11.00
2022-10-05T07:28:45.143Z,11.73
2022-10-05T07:31:19.455Z,13.23
2022-10-05T07:33:53.131Z,12.50
2022-10-05T07:36:50.937Z,8.93
2022-10-05T07:39:55.467Z,10.53
2022-10-05T07:42:31.219Z,11.90
2022-10-05T07:45:06.927Z,9.10
2022-10-05T07:47:39.808Z,11.20
2022-10-05T07:50:18.843Z,8.10
2022-10-05T07:52:52.962Z,7.70
2022-10-05T07:55:22.706Z,8.50
2022-10-05T07:57:57.741Z,6.90
2022-10-05T08:00:28.206Z,9.18
2022-10-05T08:03:00.493Z,10.88
2022-10-05T08:05:32.038Z,10.07
2022-10-05T08:08:07.924Z,16.00
2022-10-05T08:10:42.791Z,12.27
2022-10-05T08:13:17.861Z,13.27
2022-10-05T08:15:48.533Z,10.70
2022-10-05T08:18:22.722Z,30.02
2022-10-05T08:20:54.143Z,10.55
2022-10-05T08:23:35.908Z,9.73
2022-10-05T08:26:22.734Z,8.75
2022-10-05T08:29:00.254Z,10.07
2022-10-05T08:31:33.524Z,9.82
2022-10-05T08:34:19.140Z,8.82
2022-10-05T08:36:58.673Z,9.52
2022-10-05T08:39:32.781Z,10.05
2022-10-05T08:42:36.882Z,9.10
2022-10-05T08:45:29.858Z,10.05
2022-10-05T08:48:43.773Z,14.93
2022-10-05T08:51:43.690Z,11.85
2022-10-05T23:46:45.182Z,5.90
2022-10-05T23:49:14.604Z,5.20
2022-10-05T23:51:42.470Z,7.95
2022-10-05T23:54:10.211Z,5.10
2022-10-05T23:56:37.778Z,10.65
2022-10-05T23:59:05.594Z,6.00
